createdAt,value
2022-12-01T11:26:28.674Z,1.56
2022-12-01T11:31:44.147Z,1.59
2022-12-01T11:36:49.501Z,1.62
2022-12-01T11:41:57.578Z,1.67
2022-12-01T11:47:23.285Z,1.68
2022-12-01T11:52:28.225Z,1.72
2022-12-01T11:57:34.654Z,1.73
2022-12-01T12:02:51.793Z,1.75
2022-12-01T12:08:17.197Z,1.79
2022-12-01T12:13:40.801Z,1.81
2022-12-01T12:19:06.796Z,1.82
2022-12-01T12:24:27.194Z,1.85
2022-12-01T12:29:43.681Z,1.84
2022-12-01T12:34:54.591Z,1.87
2022-12-01T12:40:44.643Z,1.88
2022-12-01T12:46:11.792Z,1.90
2022-12-01T12:51:28.967Z,1.89
2022-12-01T12:56:34.470Z,1.89
2022-12-01T13:01:48.428Z,1.88
2022-12-01T13:06:59.231Z,1.89
2022-12-01T13:12:10.554Z,1.89
2022-12-01T13:17:23.695Z,1.88
2022-12-01T13:22:33.495Z,1.86
2022-12-01T13:27:40.825Z,1.84
2022-12-01T13:32:43.449Z,1.84
2022-12-01T13:37:45.535Z,1.83
2022-12-01T13:43:10.367Z,1.81
2022-12-01T13:48:48.308Z,1.80
2022-12-01T13:54:03.066Z,1.80
2022-12-01T14:00:03.592Z,1.79
2022-12-01T14:05:23.477Z,1.77
2022-12-01T14:10:31.813Z,1.76
2022-12-01T14:15:43.056Z,1.74
2022-12-01T14:20:47.259Z,1.73
2022-12-01T14:26:14.871Z,1.71
2022-12-01T14:31:17.074Z,1.69
2022-12-01T14:36:28.796Z,1.68
2022-12-01T14:41:32.639Z,1.66
2022-12-01T14:46:45.843Z,1.64
2022-12-01T14:51:51.789Z,1.62
2022-12-01T14:57:04.363Z,1.60
2022-12-01T15:02:12.487Z,1.60
2022-12-01T15:07:21.667Z,1.57
2022-12-01T15:12:29.863Z,1.56
2022-12-01T15:17:36.098Z,1.54
2022-12-01T15:22:41.591Z,1.53
2022-12-01T15:27:44.336Z,1.51
2022-12-01T15:32:46.504Z,1.50
2022-12-01T15:37:49.452Z,1.48
2022-12-01T15:43:06.546Z,1.47
2022-12-01T15:48:17.334Z,1.46
2022-12-01T15:53:33.333Z,1.44
2022-12-01T15:58:42.261Z,1.43
2022-12-01T16:03:58.770Z,1.40
2022-12-01T16:09:18.937Z,1.39
2022-12-01T16:14:26.722Z,1.37
2022-12-01T16:19:33.992Z,1.36
2022-12-01T16:24:48.018Z,1.35
2022-12-01T16:30:05.896Z,1.34
2022-12-01T16:35:31.113Z,1.32
2022-12-01T16:40:33.573Z,1.30
2022-12-01T16:45:36.083Z,1.29
2022-12-01T16:50:39.151Z,1.29
2022-12-01T16:55:46.758Z,1.26
2022-12-01T17:00:53.233Z,1.25
2022-12-01T17:05:56.103Z,1.23
2022-12-01T17:10:58.651Z,1.22
2022-12-01T17:16:06.850Z,1.21
2022-12-01T17:21:11.754Z,1.18
2022-12-01T17:26:19.462Z,1.15
2022-12-01T17:31:25.883Z,1.16
2022-12-01T17:36:28.082Z,1.14
2022-12-01T17:41:35.944Z,1.12
2022-12-01T17:46:39.236Z,1.12
2022-12-01T17:51:42.215Z,1.10
2022-12-01T17:56:44.331Z,1.08
2022-12-01T18:01:47.341Z,1.07
2022-12-01T18:06:53.750Z,1.05
2022-12-01T18:11:57.801Z,1.02
2022-12-01T18:17:00.293Z,1.03
2022-12-01T18:22:02.796Z,1.01
2022-12-01T18:27:05.109Z,1.00
2022-12-01T18:32:08.723Z,0.99
2022-12-01T18:37:11.162Z,0.95
2022-12-01T18:42:13.712Z,0.94
2022-12-01T18:47:16.429Z,0.92
2022-12-01T18:52:18.520Z,0.90
2022-12-01T18:57:21.200Z,0.90
2022-12-01T19:02:23.777Z,0.87
2022-12-01T19:07:29.744Z,0.86
2022-12-01T19:12:37.756Z,0.83
2022-12-01T19:17:42.899Z,0.80
2022-12-01T19:22:45.393Z,0.79
2022-12-01T19:27:48.543Z,0.76
2022-12-01T19:32:50.724Z,0.74
2022-12-01T19:37:53.486Z,0.75
2022-12-01T19:42:57.054Z,0.74
2022-12-01T19:47:59.544Z,0.71
2022-12-01T19:53:02.642Z,0.70
2022-12-01T19:58:06.707Z,0.69
2022-12-01T20:03:08.905Z,0.68
2022-12-01T20:08:14.391Z,0.66
2022-12-01T20:13:17.040Z,0.64
2022-12-01T20:18:19.199Z,0.63
2022-12-01T20:23:21.739Z,0.59
2022-12-01T20:28:26.355Z,0.58
2022-12-01T20:33:29.734Z,0.56
2022-12-01T20:38:33.052Z,0.52
2022-12-01T20:43:35.800Z,0.51
2022-12-01T20:48:38.500Z,0.48
2022-12-01T20:53:54.461Z,0.46
2022-12-01T20:59:03.901Z,0.43
2022-12-01T21:04:06.975Z,0.40
2022-12-01T21:09:09.202Z,0.37
2022-12-01T21:14:19.992Z,0.35
2022-12-01T21:19:30.808Z,0.32
2022-12-01T21:24:36.808Z,0.29
2022-12-01T21:29:47.662Z,0.29
2022-12-01T21:34:50.119Z,0.28
2022-12-01T21:39:53.607Z,0.23
2022-12-01T21:44:56.951Z,0.20
2022-12-01T21:50:03.053Z,0.18
2022-12-01T21:55:17.006Z,0.16
2022-12-01T22:00:33.070Z,0.15
